Latest Weather Observations for Mount William

IDV60801

Issued at 7:05 pm EST Sunday 19 April 2015 (issued every 30 minutes, with the page automatically refreshed every 10 minutes)

About weather observations | Map of weather stations | Latest weather observations for VIC | Other Formats
Station Details ID: 079103 Name: MOUNT WILLIAM Lat: -37.30 Lon: 142.60 Height: 1150.0 m
Data from the previous 72 hours. | See also: Recent months at Mount William
Date/Time
EST
Temp
°C
App
Temp
°C
Dew
Point
Rel
Hum
%
Delta-T
°C
Wind Press
QNH
hPa
Press
MSL
hPa
Rain
since 9 am
mm
Dir
 
Spd
km/h
Gust
km/h
Spd
kts
Gust
kts
19/07:00pm 1.1 -6.6 0.2 94 0.4 S 30 48 16 26 - - 0.4
19/06:40pm 1.3 -6.7 0.3 93 0.4 S 32 52 17 28 - - 0.4
19/06:30pm 1.5 -5.8 0.0 90 0.6 S 28 46 15 25 - - 0.4
19/06:16pm 1.4 -5.9 -0.1 90 0.6 S 28 46 15 25 - - 0.4
19/06:00pm 1.6 -4.9 0.3 91 0.5 S 24 41 13 22 - - 0.4
19/05:30pm 1.8 -5.1 0.3 90 0.6 SSW 26 43 14 23 - - 0.4
19/05:15pm 2.0 -5.3 -0.1 86 0.8 SSW 28 46 15 25 - - 0.4
19/05:00pm 2.1 -4.8 0.2 87 0.8 SSW 26 44 14 24 - - 0.4
19/04:30pm 2.3 -4.2 0.2 86 0.8 SSW 24 43 13 23 - - 0.4
19/04:17pm 2.4 -4.8 0.6 88 0.7 S 28 56 15 30 - - 0.4
19/04:00pm 3.3 -2.4 0.4 81 1.2 SSW 20 37 11 20 - - 0.4
19/03:30pm 3.4 -3.1 0.1 79 1.3 SSW 24 41 13 22 - - 0.4
19/03:00pm 2.4 -5.1 1.5 94 0.4 SSW 30 54 16 29 - - 0.4
19/02:30pm 2.3 -5.3 0.7 89 0.7 SW 30 50 16 27 - - 0.2
19/02:15pm 4.1 -3.2 0.1 75 1.6 SSW 28 54 15 29 - - 0.2
19/02:00pm 3.7 -2.0 0.6 80 1.3 SW 20 43 11 23 - - 0.2
19/01:30pm 3.8 -3.7 1.0 82 1.2 SSW 30 50 16 27 - - 0.2
19/01:00pm 3.3 -4.1 2.0 91 0.6 SSW 30 61 16 33 - - 0.2
19/12:50pm 1.9 -5.6 1.0 94 0.4 SSW 30 59 16 32 - - 0.2
19/12:40pm 2.6 -3.0 1.1 90 0.6 SSW 20 46 11 25 - - 0.0
19/12:30pm 3.2 -3.5 1.6 89 0.7 SSW 26 50 14 27 - - 0.0
19/12:00pm 1.6 -6.5 1.0 96 0.2 SSW 33 54 18 29 - - 0.0
19/11:51am 2.3 -4.9 0.8 90 0.6 SW 28 52 15 28 - - 0.0
19/11:30am 3.0 -3.4 1.1 87 0.8 SW 24 46 13 25 - - 0.0
19/11:05am 2.4 -3.7 0.3 86 0.8 SSW 22 65 12 35 - - 0.0
19/11:00am 2.9 -2.5 1.1 88 0.7 SSW 19 35 10 19 - - 0.0
19/10:30am 2.7 -5.2 0.8 87 0.8 SSW 32 59 17 32 - - 0.0
19/10:00am 2.0 -7.4 0.2 88 0.7 SSW 39 61 21 33 - - 0.0
19/09:30am 1.9 -7.0 1.0 94 0.4 SSW 37 63 20 34 - - 0.0
19/09:00am 1.6 -7.9 1.5 99 0.0 SSW 41 61 22 33 - - 12.8
19/08:30am 1.5 -7.3 1.4 99 0.0 SSW 37 63 20 34 - - 12.8
19/08:00am 1.1 -8.1 1.0 99 0.0 SW 39 67 21 36 - - 12.8
19/07:30am 1.0 -10.0 0.9 99 0.0 SSW 48 72 26 39 - - 12.8
19/07:00am 0.8 -11.0 0.7 99 0.0 SSW 52 72 28 39 - - 12.8
19/06:30am 0.9 -10.5 0.8 99 0.0 SSW 50 70 27 38 - - 12.8
19/06:00am 1.0 -9.6 0.9 99 0.0 SSW 46 70 25 38 - - 12.8
19/05:30am 1.1 -9.5 1.0 99 0.0 SSW 46 76 25 41 - - 12.6
19/05:00am 0.9 -8.8 0.8 99 0.0 SW 41 63 22 34 - - 12.2
19/04:30am 0.7 -10.7 0.6 99 0.0 SW 50 74 27 40 - - 12.2
19/04:01am 1.3 -8.7 1.2 99 0.0 SW 43 61 23 33 - - 12.2
19/04:00am 1.3 -8.7 1.2 99 0.0 SW 43 59 23 32 - - 12.2
19/03:34am 1.0 -9.6 0.9 99 0.0 SW 46 70 25 38 - - 12.0
19/03:30am 0.9 -9.7 0.8 99 0.0 SW 46 63 25 34 - - 11.8
19/03:15am 0.3 -10.8 0.2 99 0.0 SW 48 76 26 41 - - 11.6
19/03:02am 0.4 -7.8 0.3 99 0.0 SW 33 54 18 29 - - 11.4
19/03:00am 0.8 -7.2 0.7 99 0.0 SW 32 50 17 27 - - 11.4
19/02:32am 1.2 -8.8 1.1 99 0.0 SW 43 63 23 34 - - 11.2
19/02:30am 1.3 -8.9 1.2 99 0.0 SW 44 63 24 34 - - 11.2
19/02:03am 1.4 -7.8 1.3 99 0.0 SW 39 61 21 33 - - 11.0
19/02:00am 1.5 -7.3 1.4 99 0.0 SW 37 54 20 29 - - 11.0
19/01:31am 1.9 -5.5 1.8 99 0.0 SW 30 50 16 27 - - 11.0
19/01:30am 1.9 -5.9 1.8 99 0.0 SW 32 50 17 27 - - 11.0
19/01:12am 1.4 -6.1 1.3 99 0.0 SW 30 52 16 28 - - 11.0
19/01:00am 2.0 -5.0 1.9 99 0.0 SW 28 41 15 22 - - 11.0
19/12:33am 2.2 -6.1 2.1 99 0.0 SW 35 54 19 29 - - 11.0
19/12:30am 2.0 -6.7 1.9 99 0.0 SW 37 54 20 29 - - 11.0
19/12:08am 2.2 -6.9 2.1 99 0.0 SW 39 57 21 31 - - 11.0
19/12:00am 2.1 -7.0 2.0 99 0.0 SW 39 57 21 31 - - 11.0
 
Date/Time
EST
Temp
°C
App
Temp
°C
Dew
Point
Rel
Hum
%
Delta-T
°C
Wind Press
QNH
hPa
Press
MSL
hPa
Rain
since 9 am
mm
Dir
 
Spd
km/h
Gust
km/h
Spd
kts
Gust
kts
18/11:33pm 2.2 -6.5 2.1 99 0.0 SW 37 57 20 31 - - 11.0
18/11:30pm 2.2 -6.5 2.1 99 0.0 SW 37 54 20 29 - - 11.0
18/11:11pm 2.4 -5.5 2.3 99 0.0 SW 33 52 18 28 - - 11.0
18/11:00pm 2.5 -5.8 2.4 99 0.0 SW 35 50 19 27 - - 11.0
18/10:35pm 2.5 -6.1 2.4 99 0.0 SW 37 57 20 31 - - 11.0
18/10:30pm 2.4 -6.6 2.3 99 0.0 SW 39 57 21 31 - - 11.0
18/10:00pm 2.8 -5.0 2.7 99 0.0 SW 33 57 18 31 - - 10.8
18/09:31pm 2.8 -5.0 2.7 99 0.0 SW 33 54 18 29 - - 10.8
18/09:30pm 2.9 -5.3 2.8 99 0.0 SW 35 54 19 29 - - 10.8
18/09:00pm 3.1 -4.7 3.0 99 0.0 SW 33 52 18 28 - - 10.8
18/08:30pm 3.5 -4.2 3.4 99 0.0 SW 33 57 18 31 - - 10.8
18/08:00pm 3.7 -4.7 3.6 99 0.0 SW 37 59 20 32 - - 10.8
18/07:30pm 3.9 -3.7 3.8 99 0.0 WSW 33 63 18 34 - - 10.8
18/07:00pm 4.1 -5.0 4.0 99 0.0 WSW 41 61 22 33 - - 10.2
18/06:30pm 4.1 -6.7 4.0 99 0.0 SW 50 69 27 37 - - 9.8
18/06:01pm 6.1 -0.9 6.0 99 0.0 WSW 32 50 17 27 - - 8.2
18/06:00pm 6.2 -0.8 6.1 99 0.0 WSW 32 46 17 25 - - 8.0
18/05:30pm 6.0 -3.3 5.9 99 0.0 SW 44 57 24 31 - - 5.8
18/05:11pm 6.5 0.4 6.4 99 0.0 WSW 28 48 15 26 - - 4.6
18/05:00pm 7.1 2.6 7.0 99 0.0 WSW 20 32 11 17 - - 4.2
18/04:30pm 8.4 3.5 8.3 99 0.1 W 24 37 13 20 - - 1.8
18/04:00pm 9.6 5.0 8.2 91 0.7 W 22 41 12 22 - - 0.0
18/03:32pm 9.8 4.0 7.9 88 1.0 W 28 52 15 28 - - 0.0
18/03:30pm 10.1 4.9 8.7 91 0.7 W 26 50 14 27 - - 0.0
18/03:00pm 9.5 3.3 7.8 89 0.9 W 30 54 16 29 - - 0.0
18/02:30pm 8.9 2.9 8.8 99 0.1 WSW 30 57 16 31 - - 0.0
18/02:19pm 8.1 2.3 8.0 99 0.1 W 28 54 15 29 - - 0.0
18/02:00pm 8.4 3.0 7.8 96 0.3 W 26 43 14 23 - - 0.0
18/01:30pm 8.6 3.5 7.7 94 0.5 W 24 35 13 19 - - 0.0
18/01:18pm 8.9 2.9 7.2 89 0.9 W 28 46 15 25 - - 0.0
18/01:00pm 9.2 3.8 7.8 91 0.7 W 26 39 14 21 - - 0.0
18/12:30pm 9.0 3.4 7.1 88 1.0 WSW 26 43 14 23 - - 0.0
18/12:00pm 8.7 3.8 8.6 99 0.1 W 24 37 13 20 - - 0.0
18/11:30am 8.1 3.1 8.0 99 0.1 W 24 39 13 21 - - 0.0
18/11:00am 7.3 3.8 7.2 99 0.0 W 15 30 8 16 - - 0.0
18/10:30am 6.8 2.4 6.7 99 0.0 W 19 33 10 18 - - 0.0
18/10:00am 6.5 2.8 6.4 99 0.0 W 15 26 8 14 - - 0.0
18/09:30am 5.3 1.4 5.2 99 0.0 W 15 28 8 15 - - 0.0
18/09:00am 4.8 1.5 4.7 99 0.0 WNW 11 24 6 13 - - 2.8
18/08:30am 5.3 -0.3 5.2 99 0.0 WSW 24 44 13 24 - - 2.8
18/08:00am 4.5 -2.4 4.4 99 0.0 WSW 30 39 16 21 - - 2.8
18/07:30am 4.3 -2.7 4.2 99 0.0 WSW 30 39 16 21 - - 2.8
18/07:00am 4.7 -1.8 4.6 99 0.0 WSW 28 39 15 21 - - 2.8
18/06:30am 5.5 -1.8 5.4 99 0.0 WSW 33 41 18 22 - - 2.8
18/06:00am 5.8 -1.3 5.7 99 0.0 WSW 32 43 17 23 - - 2.8
18/05:30am 6.2 -1.3 6.1 99 0.0 WSW 35 43 19 23 - - 2.8
18/05:00am 6.3 1.8 6.2 99 0.0 WSW 19 26 10 14 - - 2.8
18/04:30am 6.4 2.3 6.3 99 0.0 W 17 20 9 11 - - 2.8
18/04:00am 6.5 1.9 6.4 99 0.0 WSW 20 32 11 17 - - 2.6
18/03:30am 6.7 3.4 6.6 99 0.0 WSW 13 26 7 14 - - 2.6
18/03:00am 6.9 2.0 6.8 99 0.0 WSW 22 35 12 19 - - 2.6
18/02:30am 7.0 3.1 6.9 99 0.0 WSW 17 22 9 12 - - 2.6
18/02:00am 7.4 3.0 7.3 99 0.0 W 20 24 11 13 - - 2.6
18/01:30am 7.2 3.3 7.1 99 0.0 W 17 22 9 12 - - 2.4
18/01:00am 7.2 2.7 7.1 99 0.0 W 20 26 11 14 - - 2.4
18/12:30am 7.3 3.0 7.2 99 0.0 W 19 24 10 13 - - 2.4
18/12:00am 7.4 3.2 7.3 99 0.0 W 19 24 10 13 - - 2.4
 
Date/Time
EST
Temp
°C
App
Temp
°C
Dew
Point
Rel
Hum
%
Delta-T
°C
Wind Press
QNH
hPa
Press
MSL
hPa
Rain
since 9 am
mm
Dir
 
Spd
km/h
Gust
km/h
Spd
kts
Gust
kts
17/11:30pm 7.4 3.0 7.3 99 0.0 W 20 26 11 14 - - 2.2
17/11:00pm 7.5 3.3 7.4 99 0.1 W 19 24 10 13 - - 2.0
17/10:30pm 7.6 3.2 7.5 99 0.1 WNW 20 26 11 14 - - 1.6
17/10:00pm 7.8 4.0 7.7 99 0.1 NW 17 26 9 14 - - 1.6
17/09:30pm 7.2 2.7 7.1 99 0.0 WNW 20 28 11 15 - - 1.4
17/09:00pm 7.6 2.1 7.5 99 0.1 NW 26 30 14 16 - - 1.4
17/08:30pm 7.2 2.9 7.1 99 0.0 NNW 19 26 10 14 - - 1.4
17/08:00pm 7.0 2.7 6.9 99 0.0 NNW 19 22 10 12 - - 1.4
17/07:30pm 7.1 3.6 7.0 99 0.0 N 15 19 8 10 - - 1.2
17/07:00pm 6.6 2.6 6.5 99 0.0 N 17 19 9 10 - - 1.0
17/06:30pm 6.6 2.9 6.5 99 0.0 N 15 20 8 11 - - 0.8
17/06:00pm 6.9 2.0 6.8 99 0.0 NNE 22 28 12 15 - - 0.4
17/05:30pm 7.1 2.7 6.7 97 0.2 NNE 19 22 10 12 - - 0.0
17/05:00pm 8.0 4.5 7.4 96 0.3 NNE 15 19 8 10 - - 0.0
17/04:30pm 8.4 5.0 7.5 94 0.5 NNE 15 20 8 11 - - 0.0
17/04:00pm 9.2 5.0 7.3 88 1.0 NE 19 22 10 12 - - 0.0
17/03:30pm 9.0 5.4 6.6 85 1.2 NE 15 17 8 9 - - 0.0
17/03:00pm 9.1 5.8 4.3 72 2.3 NE 11 15 6 8 - - 0.0
17/02:30pm 8.1 5.5 4.3 77 1.8 N 7 13 4 7 - - 0.0
17/02:00pm 7.7 4.1 5.0 83 1.3 NW 13 17 7 9 - - 0.0
17/01:30pm 9.1 4.5 3.5 68 2.6 NNE 17 19 9 10 - - 0.0
17/01:00pm 8.3 2.6 0.8 59 3.2 NNE 20 26 11 14 - - 0.0
17/12:30pm 8.0 3.0 3.5 73 2.1 N 19 24 10 13 - - 0.0
17/12:00pm 9.7 4.8 -3.6 39 5.3 N 13 17 7 9 - - 0.0
17/11:30am 7.7 5.4 4.7 81 1.4 NNW 6 7 3 4 - - 0.0
17/11:00am 7.9 5.9 4.5 79 1.6 NNW 4 6 2 3 - - 0.0
17/10:30am 8.3 7.3 5.4 82 1.4 CALM 0 4 0 2 - - 0.0
17/10:00am 7.8 4.9 4.6 80 1.5 W 9 11 5 6 - - 0.0
17/09:30am 7.9 5.3 4.3 78 1.7 W 7 9 4 5 - - 0.0
17/09:00am 7.7 5.2 4.5 80 1.5 W 7 9 4 5 - - 0.0
17/08:30am 7.5 4.2 4.5 81 1.4 W 11 13 6 7 - - 0.0
17/08:00am 7.2 3.1 4.5 83 1.3 W 15 17 8 9 - - 0.0
17/07:30am 7.5 3.4 4.5 81 1.4 W 15 19 8 10 - - 0.0
17/07:00am 7.8 3.5 3.1 72 2.1 W 15 20 8 11 - - 0.0
17/06:30am 7.6 3.7 3.3 74 2.0 W 13 17 7 9 - - 0.0
17/06:00am 7.7 3.9 3.7 76 1.8 W 13 15 7 8 - - 0.0
17/05:30am 7.8 3.6 3.8 76 1.8 WSW 15 17 8 9 - - 0.0
17/05:00am 8.0 3.5 4.0 76 1.9 WSW 17 20 9 11 - - 0.0
17/04:30am 8.1 3.5 1.5 63 2.9 W 15 19 8 10 - - 0.0
17/04:00am 10.3 6.0 -18.8 11 8.2 WNW 4 13 2 7 - - 0.0
17/03:30am 9.9 4.3 -17.2 13 7.9 W 11 13 6 7 - - 0.0
17/03:00am 10.0 4.0 -18.1 12 8.0 WSW 13 15 7 8 - - 0.0
17/02:30am 9.1 3.9 -10.9 23 6.6 WNW 11 13 6 7 - - 0.0
17/02:00am 9.4 4.2 -16.7 14 7.6 W 9 11 5 6 - - 0.0
17/01:30am 9.8 5.1 -19.2 11 8.0 WNW 6 9 3 5 - - 0.0
17/01:00am 10.3 5.0 -21.1 9 8.4 W 9 11 5 6 - - 0.0
17/12:30am 10.4 5.5 -19.9 10 8.3 WNW 7 9 4 5 - - 0.0
17/12:00am 10.4 6.1 -17.7 12 8.1 NNW 4 9 2 5 - - 0.0
 
Date/Time
EST
Temp
°C
App
Temp
°C
Dew
Point
Rel
Hum
%
Delta-T
°C
Wind Press
QNH
hPa
Press
MSL
hPa
Rain
since 9 am
mm
Dir
 
Spd
km/h
Gust
km/h
Spd
kts
Gust
kts
16/11:30pm 10.6 5.7 -19.7 10 8.4 NW 7 11 4 6 - - 0.0
16/11:00pm 10.9 6.7 -27.2 5 9.1 WSW 2 6 1 3 - - 0.0
16/10:30pm 9.2 5.1 -15.3 16 7.3 SSW 4 6 2 3 - - 0.0
16/10:00pm 9.0 4.4 -17.9 13 7.6 SSE 6 7 3 4 - - 0.0
16/09:30pm 8.6 4.1 -6.7 33 5.6 SSW 9 9 5 5 - - 0.0
16/09:00pm 8.9 5.2 -2.7 44 4.7 SW 7 9 4 5 - - 0.0
16/08:30pm 9.3 4.5 -6.5 32 5.8 WSW 11 11 6 6 - - 0.0
16/08:00pm 7.4 4.5 4.7 83 1.3 WSW 9 11 5 6 - - 0.0
16/07:30pm 7.2 4.3 4.7 84 1.2 W 9 9 5 5 - - 0.0

Other Formats:

Comma delimited format used in spreadsheet applications
http://www.bom.gov.au/fwo/IDV60801/IDV60801.94833.axf

JavaScript Object Notation format (JSON) in row-major order
http://www.bom.gov.au/fwo/IDV60801/IDV60801.94833.json